Time;durP1;ratioP1;P1;durP2;ratioP2;P2;SDS_P1;SDS_P2;PMS_P1;PMS_P2;Temp;Humidity;BMP_temperature;BMP_pressure;BME280_temperature;BME280_humidity;BME280_pressure;Samples;Min_cycle;Max_cycle;Signal;HPM_P1;HPM_P2
2022/12/31 00:02:09;;;;;;;3.92;2.67;;;12.20;73.80;;;7.78;100.00;95778.22;4974489;28;20022;-53
2022/12/31 00:04:35;;;;;;;4.32;2.53;;;12.20;73.70;;;7.80;100.00;95772.66;4972728;28;20041;-54
2022/12/31 00:07:01;;;;;;;3.60;2.70;;;12.20;73.70;;;7.78;100.00;95767.59;4974030;28;20030;-56
2022/12/31 00:09:27;;;;;;;3.33;2.45;;;12.30;73.70;;;7.78;100.00;95769.47;4956754;28;20060;-50
2022/12/31 00:12:02;;;;;;;3.83;2.50;;;12.30;73.70;;;7.81;100.00;95766.31;4972975;28;20077;-52
2022/12/31 00:14:28;;;;;;;2.60;2.13;;;12.30;73.80;;;7.87;100.00;95747.59;4974217;28;20393;-54
2022/12/31 00:17:00;;;;;;;3.33;2.28;;;12.30;74.00;;;7.95;100.00;95749.00;4974796;28;20017;-50
2022/12/31 00:19:29;;;;;;;3.53;2.10;;;12.30;74.00;;;8.01;100.00;95739.28;4970771;28;20031;-52
2022/12/31 00:21:55;;;;;;;2.95;2.08;;;12.40;74.10;;;8.06;100.00;95742.03;4972626;28;20026;-53
2022/12/31 00:24:20;;;;;;;2.40;2.00;;;12.40;74.10;;;8.08;100.00;95756.66;4975005;28;20034;-51
2022/12/31 00:26:49;;;;;;;2.78;2.15;;;12.40;74.10;;;8.07;100.00;95760.34;4971884;28;20046;-50
2022/12/31 00:29:15;;;;;;;5.47;2.50;;;12.50;74.00;;;8.04;100.00;95755.50;4971059;28;20400;-51
2022/12/31 00:31:41;;;;;;;3.20;2.60;;;12.40;73.80;;;8.05;100.00;95746.53;4940523;28;20022;-50
2022/12/31 00:34:10;;;;;;;4.35;2.50;;;12.40;73.60;;;8.01;100.00;95744.59;4973667;28;20447;-50
2022/12/31 00:36:39;;;;;;;2.50;2.13;;;12.50;73.60;;;8.01;100.00;95748.03;4972182;28;20037;-54
2022/12/31 00:39:09;;;;;;;2.65;2.20;;;12.50;73.70;;;8.09;100.00;95752.94;4940628;28;20054;-56
2022/12/31 00:41:42;;;;;;;4.38;2.38;;;12.50;73.90;;;8.17;100.00;95762.31;4956729;28;20022;-50
2022/12/31 00:44:12;;;;;;;2.90;1.95;;;12.50;74.00;;;8.20;100.00;95745.13;4956395;28;20127;-50
2022/12/31 00:46:38;;;;;;;2.92;1.90;;;12.60;74.00;;;8.21;100.00;95759.97;4955877;28;20046;-50
2022/12/31 00:49:11;;;;;;;2.53;2.03;;;12.60;73.90;;;8.20;100.00;95753.06;4960865;28;20030;-51
2022/12/31 00:51:36;;;;;;;3.47;2.20;;;12.60;73.70;;;8.17;100.00;95757.00;4973481;28;20037;-50
2022/12/31 00:54:09;;;;;;;4.15;2.17;;;12.50;73.60;;;8.16;100.00;95762.59;4972106;28;20042;-56
2022/12/31 00:56:34;;;;;;;3.22;1.98;;;12.50;73.60;;;8.18;100.00;95771.91;4971739;28;20050;-57
2022/12/31 00:59:04;;;;;;;3.17;2.00;;;12.50;73.70;;;8.18;100.00;95769.25;4971987;28;20461;-55
2022/12/31 01:01:37;;;;;;;5.70;1.60;;;12.60;73.80;;;8.22;100.00;95774.88;4956107;28;20030;-53
2022/12/31 01:04:15;;;;;;;4.15;1.60;;;12.60;73.90;;;8.21;100.00;95766.13;4967047;28;20408;-53
2022/12/31 01:06:42;;;;;;;3.67;1.70;;;12.60;73.90;;;8.23;100.00;95779.91;4958510;28;20113;-57
2022/12/31 01:09:11;;;;;;;2.85;2.15;;;12.60;73.80;;;8.32;100.00;95778.47;4972171;28;20413;-56
2022/12/31 01:11:45;;;;;;;2.08;1.40;;;12.70;74.10;;;8.39;100.00;95766.88;4963411;28;20105;-53
2022/12/31 01:14:18;;;;;;;2.47;1.60;;;12.70;74.10;;;8.43;100.00;95776.78;4955896;28;20026;-56
2022/12/31 01:16:52;;;;;;;2.63;1.73;;;12.70;74.10;;;8.45;100.00;95768.56;4971752;28;20037;-53
2022/12/31 01:19:25;;;;;;;3.20;1.58;;;12.70;74.00;;;8.45;100.00;95781.84;4971992;28;20034;-57
2022/12/31 01:21:52;;;;;;;2.05;1.30;;;12.70;74.00;;;8.45;100.00;95779.97;4955400;28;20022;-55
2022/12/31 01:24:18;;;;;;;3.63;1.50;;;12.70;73.80;;;8.43;100.00;95790.06;4975113;28;20045;-58
2022/12/31 01:26:45;;;;;;;2.45;1.70;;;12.70;73.80;;;8.43;100.00;95786.56;4970608;28;20092;-52
2022/12/31 01:29:13;;;;;;;2.75;1.70;;;12.80;73.90;;;8.45;100.00;95789.78;4954527;28;20037;-55
2022/12/31 01:31:40;;;;;;;2.63;1.60;;;12.80;74.00;;;8.48;100.00;95787.44;4936368;28;20085;-56
2022/12/31 01:34:07;;;;;;;1.98;1.30;;;12.80;74.10;;;8.51;100.00;95792.28;4963817;28;20030;-54
2022/12/31 01:36:37;;;;;;;1.40;1.25;;;12.80;74.00;;;8.56;100.00;95781.72;4979925;28;20087;-54
2022/12/31 01:39:07;;;;;;;2.17;1.60;;;12.90;74.10;;;8.56;100.00;95792.34;4972680;28;20049;-51
2022/12/31 01:41:42;;;;;;;2.88;1.55;;;12.90;74.00;;;8.61;100.00;95788.94;4955343;28;20026;-55
2022/12/31 01:44:26;;;;;;;2.15;1.50;;;13.00;74.10;;;8.63;100.00;95789.50;4970875;28;20489;-57
2022/12/31 01:47:04;;;;;;;3.40;1.40;;;13.00;74.00;;;8.67;100.00;95787.16;4963877;28;20388;-51
2022/12/31 01:49:48;;;;;;;2.08;1.50;;;13.00;73.90;;;8.67;100.00;95779.19;4955487;28;20116;-56
2022/12/31 01:52:52;;;;;;;2.42;1.73;;;13.00;73.90;;;8.62;100.00;95779.13;4954864;28;20217;-57
2022/12/31 01:56:08;;;;;;;3.72;1.50;;;13.00;73.60;;;8.55;100.00;95782.78;4952498;28;20045;-52
2022/12/31 01:58:46;;;;;;;2.70;1.83;;;13.00;73.50;;;8.52;100.00;95787.75;4954546;28;20548;-50
2022/12/31 02:01:27;;;;;;;2.45;2.08;;;13.00;73.40;;;8.50;100.00;95793.34;4908610;28;20473;-56
2022/12/31 02:04:10;;;;;;;2.60;1.85;;;13.00;73.40;;;8.50;100.00;95798.63;4970742;28;20092;-50
2022/12/31 02:06:52;;;;;;;2.28;1.85;;;13.00;73.40;;;8.49;100.00;95805.00;4943104;28;20405;-51
2022/12/31 02:09:19;;;;;;;5.15;1.83;;;13.00;73.40;;;8.47;100.00;95793.03;4960081;28;20032;-51
2022/12/31 02:11:45;;;;;;;2.28;2.00;;;13.00;73.40;;;8.45;100.00;95795.09;4977045;28;20032;-52
2022/12/31 02:14:52;;;;;;;3.97;2.20;;;13.00;73.30;;;8.36;100.00;95794.69;4954701;28;20600;-52
2022/12/31 02:17:45;;;;;;;1.73;1.63;;;13.00;73.30;;;8.35;100.00;95793.09;4971279;28;20023;-53
2022/12/31 02:20:41;;;;;;;2.85;2.10;;;13.00;73.40;;;8.40;100.00;95787.91;4972017;28;20041;-54
2022/12/31 02:23:50;;;;;;;3.30;1.70;;;13.00;73.60;;;8.44;100.00;95778.38;4956698;28;20038;-54
2022/12/31 02:27:32;;;;;;;2.00;1.77;;;12.90;73.60;;;8.46;100.00;95784.25;4969594;28;20057;-54
2022/12/31 02:30:16;;;;;;;1.85;1.65;;;13.00;73.60;;;8.43;100.00;95787.41;4968356;28;20026;-51
2022/12/31 02:33:17;;;;;;;3.05;1.73;;;12.90;74.40;;;8.43;100.00;95794.53;4953877;28;20022;-53
2022/12/31 02:36:15;;;;;;;1.98;1.70;;;12.90;73.50;;;8.39;100.00;95798.75;4966933;28;20109;-52
2022/12/31 02:38:47;;;;;;;1.83;1.60;;;12.90;73.60;;;8.43;100.00;95802.50;4946077;28;20396;-53
2022/12/31 02:44:26;;;;;;;2.20;1.60;;;12.90;73.70;;;8.52;100.00;95807.19;4957263;28;20873;-55
2022/12/31 02:47:07;;;;;;;1.88;1.60;;;12.90;73.80;;;8.55;100.00;95809.34;4972769;28;20028;-51
2022/12/31 02:50:37;;;;;;;4.28;1.40;;;13.00;73.90;;;8.59;100.00;95796.38;4954376;28;20536;-53
2022/12/31 02:54:06;;;;;;;1.58;1.20;;;13.00;73.90;;;8.62;100.00;95810.97;4973718;28;20132;-53
2022/12/31 02:57:12;;;;;;;1.60;1.25;;;13.00;73.80;;;8.62;100.00;95809.16;4944230;28;20049;-51
2022/12/31 03:02:47;;;;;;;1.67;1.40;;;13.00;73.80;;;8.72;100.00;95797.84;4970523;28;20033;-50
2022/12/31 03:05:24;;;;;;;1.17;1.08;;;13.10;73.80;;;8.79;100.00;95795.81;4952889;28;20037;-54
2022/12/31 03:07:53;;;;;;;1.10;1.00;;;13.10;73.80;;;8.86;100.00;95806.25;4923783;28;20473;-53
2022/12/31 03:10:22;;;;;;;2.65;1.10;;;13.20;73.80;;;8.91;100.00;95806.31;4953571;28;20392;-51
2022/12/31 03:12:51;;;;;;;1.52;1.20;;;13.20;73.80;;;8.96;100.00;95799.22;4968727;28;20109;-55
2022/12/31 03:15:28;;;;;;;1.13;1.02;;;13.20;73.70;;;9.01;100.00;95801.09;4953200;28;20156;-52
2022/12/31 03:18:12;;;;;;;1.05;0.90;;;13.30;73.70;;;9.02;100.00;95811.50;4963188;28;20045;-52
2022/12/31 03:26:30;;;;;;;1.85;0.90;;;13.40;73.40;;;9.14;100.00;95810.53;4928920;29;20466;-54
2022/12/31 03:28:55;;;;;;;1.42;1.05;;;13.40;73.30;;;9.14;100.00;95811.34;4946041;28;20038;-53
2022/12/31 03:31:21;;;;;;;1.58;1.00;;;13.40;73.20;;;9.13;100.00;95811.59;4970505;28;20026;-50
2022/12/31 03:33:53;;;;;;;2.40;1.17;;;13.50;73.20;;;9.10;100.00;95820.88;4970653;28;20034;-52
2022/12/31 03:36:22;;;;;;;0.80;0.80;;;13.50;73.10;;;9.06;100.00;95821.59;4969115;28;20037;-50
2022/12/31 03:38:48;;;;;;;1.00;0.90;;;13.50;73.00;;;9.11;100.00;95827.78;4969461;28;20125;-53
2022/12/31 03:41:14;;;;;;;2.55;1.00;;;13.40;73.00;;;9.12;100.00;95824.09;4969708;28;20628;-54
2022/12/31 03:43:40;;;;;;;1.52;1.10;;;13.40;72.90;;;9.14;100.00;95832.59;4969628;28;20038;-53
2022/12/31 03:46:05;;;;;;;1.08;0.98;;;13.50;73.00;;;9.16;100.00;95835.03;4953080;28;20362;-54
2022/12/31 03:48:41;;;;;;;2.65;1.10;;;13.40;72.80;;;9.13;100.00;95825.69;4929792;29;20030;-50
2022/12/31 03:51:10;;;;;;;1.05;0.90;;;13.50;72.80;;;9.09;100.00;95835.22;4954980;28;20027;-53
2022/12/31 03:53:36;;;;;;;1.17;0.82;;;13.50;72.70;;;9.11;100.00;95841.06;4952215;28;20032;-53
2022/12/31 03:56:10;;;;;;;1.80;0.90;;;13.50;72.80;;;9.17;100.00;95837.41;4970124;28;20030;-51
2022/12/31 03:58:36;;;;;;;2.05;0.88;;;13.50;72.80;;;9.17;100.00;95841.94;4969732;28;20026;-50
2022/12/31 04:01:02;;;;;;;1.85;1.00;;;13.50;72.70;;;9.19;100.00;95842.50;4963687;28;20045;-52
2022/12/31 04:03:30;;;;;;;1.23;0.90;;;13.50;72.70;;;9.22;100.00;95837.47;4968268;28;20049;-54
2022/12/31 04:05:59;;;;;;;1.10;0.98;;;13.50;72.70;;;9.24;100.00;95839.88;4969018;28;20048;-54
2022/12/31 04:08:30;;;;;;;1.15;0.85;;;13.60;72.70;;;9.27;100.00;95834.91;4968206;28;20022;-57
2022/12/31 04:10:56;;;;;;;1.13;0.93;;;13.60;72.70;;;9.31;100.00;95845.81;4971066;28;20026;-57
2022/12/31 04:13:42;;;;;;;1.13;1.00;;;13.60;72.60;;;9.32;100.00;95843.97;4958350;28;20057;-54
2022/12/31 04:16:11;;;;;;;3.58;1.05;;;13.60;72.50;;;9.28;100.00;95827.72;4944877;28;20026;-55
2022/12/31 04:18:37;;;;;;;1.05;0.90;;;13.60;72.40;;;9.23;100.00;95835.63;4968242;28;20073;-56
2022/12/31 04:21:05;;;;;;;1.20;1.10;;;13.70;72.40;;;9.17;100.00;95832.09;4968911;28;20022;-55
2022/12/31 04:23:36;;;;;;;1.42;1.10;;;13.70;72.30;;;9.15;100.00;95839.53;4968473;28;20049;-52
2022/12/31 04:26:12;;;;;;;1.48;1.00;;;13.60;72.10;;;9.13;100.00;95836.31;4968718;28;20026;-56
2022/12/31 04:28:37;;;;;;;1.17;1.00;;;13.60;72.20;;;9.13;100.00;95848.81;4968499;28;20022;-57
2022/12/31 04:31:03;;;;;;;1.55;1.00;;;13.60;72.10;;;9.10;100.00;95846.66;4967532;28;20033;-55
2022/12/31 04:33:29;;;;;;;2.45;1.10;;;13.60;72.10;;;9.10;100.00;95854.63;4952620;28;20080;-54
2022/12/31 04:36:22;;;;;;;1.80;1.13;;;13.60;72.10;;;9.08;100.00;95844.22;4950275;28;20069;-57
2022/12/31 04:38:51;;;;;;;2.03;1.07;;;13.60;72.20;;;9.07;100.00;95852.47;4935522;28;20096;-53
2022/12/31 04:41:16;;;;;;;2.28;0.98;;;13.60;72.20;;;9.03;100.00;95852.16;4971214;28;20377;-52
2022/12/31 04:43:59;;;;;;;1.55;0.98;;;13.60;72.10;;;9.00;100.00;95848.13;4972457;28;20034;-56
2022/12/31 04:46:30;;;;;;;1.77;0.90;;;13.50;72.20;;;8.99;100.00;95841.22;4960235;28;20061;-53
2022/12/31 04:49:00;;;;;;;1.80;1.10;;;13.50;72.30;;;8.99;100.00;95851.03;4972021;28;20026;-55
2022/12/31 04:51:31;;;;;;;2.60;1.10;;;13.50;72.20;;;8.98;100.00;95868.03;4971190;28;20053;-53
2022/12/31 04:54:00;;;;;;;1.48;1.00;;;13.50;72.30;;;8.98;100.00;95870.69;4960190;28;20045;-51
2022/12/31 04:56:27;;;;;;;2.53;0.85;;;13.50;72.60;;;9.03;100.00;95871.56;4945043;28;20029;-51
2022/12/31 04:58:54;;;;;;;0.95;0.90;;;13.50;72.60;;;9.12;100.00;95861.31;4970435;28;20048;-51
2022/12/31 05:01:23;;;;;;;1.55;1.10;;;13.50;72.60;;;9.15;100.00;95855.50;4951225;28;20401;-52
2022/12/31 05:03:50;;;;;;;3.22;1.77;;;13.60;72.60;;;9.15;100.00;95852.00;4951999;28;20030;-50
2022/12/31 05:06:22;;;;;;;2.88;1.40;;;13.60;72.50;;;9.12;100.00;95845.34;4958970;28;20232;-52
2022/12/31 05:08:49;;;;;;;2.00;1.67;;;13.60;72.40;;;9.08;100.00;95849.53;4971876;28;20546;-53
2022/12/31 05:11:19;;;;;;;1.40;1.17;;;13.60;72.30;;;9.03;100.00;95854.81;4964402;28;20038;-53
2022/12/31 05:13:45;;;;;;;1.38;1.27;;;13.60;72.40;;;9.01;100.00;95851.59;4970708;28;20038;-54
2022/12/31 05:16:11;;;;;;;3.88;1.35;;;13.50;72.40;;;9.00;100.00;95856.09;4967553;28;20105;-55
2022/12/31 05:18:40;;;;;;;2.70;1.17;;;13.50;72.40;;;9.00;100.00;95850.78;4972125;28;20029;-53
2022/12/31 05:21:06;;;;;;;4.00;1.10;;;13.50;72.60;;;8.99;100.00;95848.38;4971842;28;20018;-54
2022/12/31 05:23:33;;;;;;;1.35;1.25;;;13.50;72.50;;;8.98;100.00;95862.72;4950691;28;20042;-54
2022/12/31 05:25:59;;;;;;;2.28;1.50;;;13.50;72.60;;;8.98;100.00;95868.81;4954472;28;20030;-48
2022/12/31 05:28:35;;;;;;;2.10;1.00;;;13.50;72.70;;;8.98;100.00;95871.47;4969611;28;20029;-50
2022/12/31 05:31:11;;;;;;;1.73;1.20;;;13.50;72.70;;;8.97;100.00;95859.25;4956062;28;20420;-50
2022/12/31 05:33:36;;;;;;;1.25;1.08;;;13.50;72.70;;;8.98;100.00;95862.72;4971417;28;20034;-52
2022/12/31 05:36:03;;;;;;;1.20;1.10;;;13.50;72.60;;;8.98;100.00;95847.56;4970267;28;20037;-48
2022/12/31 05:38:32;;;;;;;0.90;0.90;;;13.50;72.60;;;8.97;100.00;95864.56;4972035;28;20092;-49
2022/12/31 05:41:06;;;;;;;1.10;1.00;;;13.40;72.70;;;8.95;100.00;95866.66;4970287;28;20163;-53
2022/12/31 05:43:33;;;;;;;2.28;1.00;;;13.40;72.80;;;8.99;100.00;95873.09;4954599;28;20065;-49
2022/12/31 05:46:03;;;;;;;1.02;0.80;;;13.50;72.80;;;8.97;100.00;95880.50;4970954;28;20030;-49
2022/12/31 05:48:32;;;;;;;2.45;0.75;;;13.50;72.80;;;8.99;100.00;95878.41;4947664;28;20030;-48
2022/12/31 05:50:58;;;;;;;1.27;0.93;;;13.50;72.80;;;8.99;100.00;95875.75;4971196;28;20026;-48
2022/12/31 05:53:27;;;;;;;0.90;0.70;;;13.50;73.40;;;9.01;100.00;95886.94;4937063;28;20030;-48
2022/12/31 05:56:01;;;;;;;1.88;0.82;;;13.50;72.60;;;9.00;100.00;95880.03;4970788;28;20030;-52
2022/12/31 05:58:27;;;;;;;2.55;0.60;;;13.50;72.50;;;9.03;100.00;95887.50;4955003;28;20026;-50
2022/12/31 06:00:55;;;;;;;1.00;0.90;;;13.50;72.40;;;9.02;100.00;95887.72;4953755;28;20092;-52
2022/12/31 06:03:21;;;;;;;1.83;1.00;;;13.50;73.10;;;9.02;100.00;95895.69;4946331;28;20038;-50
2022/12/31 06:05:49;;;;;;;1.25;0.90;;;13.50;72.30;;;9.03;100.00;95897.31;4951520;28;20405;-50
2022/12/31 06:08:15;;;;;;;1.00;0.90;;;13.50;72.20;;;9.05;100.00;95895.22;4971226;28;20528;-58
2022/12/31 06:10:44;;;;;;;2.38;1.20;;;13.60;72.10;;;9.07;100.00;95900.28;4969950;28;20062;-48
2022/12/31 06:13:12;;;;;;;1.20;1.10;;;13.60;72.10;;;9.04;100.00;95901.59;4971113;28;20092;-58
2022/12/31 06:15:39;;;;;;;3.17;0.93;;;13.60;71.90;;;9.05;99.86;95900.53;4967794;28;20553;-50
2022/12/31 06:18:06;;;;;;;0.70;0.70;;;13.60;71.90;;;9.09;99.96;95898.16;4968842;28;20539;-48
2022/12/31 06:20:36;;;;;;;2.72;0.80;;;13.50;71.70;;;9.08;99.93;95889.41;4937764;28;20591;-48
2022/12/31 06:23:03;;;;;;;1.48;1.00;;;13.50;71.60;;;9.06;98.40;95894.19;4969153;28;20034;-49
2022/12/31 06:25:29;;;;;;;0.70;0.70;;;13.50;71.50;;;9.02;96.93;95893.88;4953422;28;20042;-48
2022/12/31 06:28:00;;;;;;;1.17;0.70;;;13.50;71.30;;;9.00;95.81;95888.00;4968936;28;20057;-53
2022/12/31 06:30:30;;;;;;;0.97;0.73;;;13.50;71.20;;;8.98;94.10;95884.75;4969777;28;20137;-49
2022/12/31 06:32:56;;;;;;;0.60;0.60;;;13.50;71.20;;;9.00;93.90;95882.69;4951604;28;20555;-52
2022/12/31 06:35:25;;;;;;;1.00;0.80;;;13.40;70.90;;;8.97;92.53;95888.47;4967648;28;20034;-53
2022/12/31 06:38:01;;;;;;;1.02;0.90;;;13.50;70.70;;;9.02;92.43;95898.34;4968473;28;20022;-48
2022/12/31 06:40:27;;;;;;;1.77;0.68;;;13.50;70.60;;;9.06;92.25;95906.63;4969233;28;20030;-48
2022/12/31 06:43:00;;;;;;;1.25;0.70;;;13.40;70.50;;;9.08;91.92;95915.97;4969507;28;20037;-49
2022/12/31 06:45:28;;;;;;;1.65;0.70;;;13.50;70.40;;;9.10;92.42;95929.03;4969348;28;20022;-55
2022/12/31 06:47:57;;;;;;;0.88;0.80;;;13.50;70.40;;;9.08;91.73;95923.94;4941996;28;20031;-49
2022/12/31 06:50:23;;;;;;;1.10;1.00;;;13.50;70.20;;;9.03;94.35;95915.94;4961936;28;20014;-53
2022/12/31 06:52:48;;;;;;;1.05;0.82;;;13.50;70.00;;;8.99;94.82;95920.09;4947662;28;20086;-48
2022/12/31 06:55:15;;;;;;;2.03;0.90;;;13.50;69.90;;;8.90;95.30;95918.91;4968285;28;20477;-52
2022/12/31 06:57:44;;;;;;;0.77;0.70;;;13.40;69.80;;;8.81;94.17;95918.56;4969693;28;20045;-54
2022/12/31 07:00:11;;;;;;;2.25;0.80;;;13.30;69.80;;;8.75;95.34;95923.00;4966906;28;20029;-48
2022/12/31 07:03:28;;;;;;;0.85;0.60;;;13.30;69.80;;;8.63;96.82;95919.63;4938586;28;20076;-48
2022/12/31 07:06:15;;;;;;;0.95;0.80;;;13.20;69.70;;;8.51;97.16;95922.38;4946033;28;20041;-50
2022/12/31 07:09:39;;;;;;;2.78;0.68;;;13.20;69.80;;;8.43;97.38;95917.47;4951595;28;20025;-48
2022/12/31 07:12:39;;;;;;;0.82;0.70;;;13.10;69.80;;;8.45;97.34;95914.56;4952937;28;20026;-49
2022/12/31 07:16:09;;;;;;;0.52;0.50;;;13.00;69.90;;;8.43;97.41;95928.09;4949092;28;20037;-48
2022/12/31 07:19:10;;;;;;;0.70;0.60;;;13.00;70.10;;;8.44;97.59;95929.69;4956195;28;20056;-55
2022/12/31 07:21:40;;;;;;;1.00;0.90;;;13.00;70.10;;;8.40;97.64;95927.75;4961318;28;20034;-55
2022/12/31 07:24:11;;;;;;;1.33;0.80;;;12.90;70.10;;;8.35;98.08;95925.81;4907098;28;262509;-49
2022/12/31 07:27:33;;;;;;;1.75;0.85;;;12.90;70.10;;;8.30;98.54;95934.50;4966356;28;20560;-55
2022/12/31 07:30:13;;;;;;;0.60;0.60;;;12.90;70.10;;;8.28;98.46;95936.59;4963045;28;20034;-52
2022/12/31 07:33:24;;;;;;;0.82;0.70;;;12.90;70.20;;;8.28;98.45;95931.28;4963945;28;20438;-49
2022/12/31 07:36:56;;;;;;;5.43;0.80;;;12.80;70.20;;;8.22;99.47;95937.56;4943284;28;20026;-52
2022/12/31 07:40:01;;;;;;;2.60;1.10;;;12.80;70.20;;;8.19;99.93;95935.38;4950733;28;20045;-53
2022/12/31 07:43:07;;;;;;;1.33;0.70;;;12.80;70.40;;;8.16;99.82;95950.97;4968252;28;20056;-50
2022/12/31 07:46:41;;;;;;;0.73;0.57;;;12.80;70.30;;;8.22;96.91;95961.44;4929956;28;20043;-57
2022/12/31 07:49:13;;;;;;;1.40;1.08;;;12.80;70.40;;;8.27;96.88;95955.41;4947372;28;20738;-55
2022/12/31 07:51:40;;;;;;;2.42;1.40;;;12.80;70.40;;;8.27;97.70;95969.50;4967968;28;20034;-52
2022/12/31 07:54:14;;;;;;;1.02;0.85;;;12.80;70.20;;;8.30;96.91;95973.50;4911404;28;20027;-49
2022/12/31 07:56:43;;;;;;;0.63;0.60;;;12.90;70.10;;;8.25;97.15;95966.25;4968872;28;20030;-53
2022/12/31 07:59:33;;;;;;;2.78;0.77;;;12.90;70.00;;;8.16;97.38;95956.28;4966047;28;20508;-48
2022/12/31 08:02:45;;;;;;;2.13;0.80;;;12.90;69.80;;;8.14;97.07;95958.38;4967007;28;20060;-49
2022/12/31 08:06:03;;;;;;;2.28;0.80;;;12.90;69.60;;;8.05;97.11;95953.47;4967013;28;20473;-55
2022/12/31 08:08:45;;;;;;;0.70;0.70;;;12.80;69.50;;;8.02;97.08;95947.81;4968860;28;20485;-48
2022/12/31 08:11:46;;;;;;;1.20;0.90;;;12.80;69.50;;;8.05;97.23;95956.13;4957908;28;20026;-50
2022/12/31 08:14:14;;;;;;;2.03;1.10;;;12.70;69.40;;;7.95;97.53;95960.44;4939786;28;20075;-55
2022/12/31 08:16:41;;;;;;;0.98;0.93;;;12.70;69.50;;;7.95;98.60;95947.16;4971278;28;20105;-56
2022/12/31 08:19:32;;;;;;;1.77;0.80;;;12.70;69.40;;;7.92;97.79;95947.63;4962245;28;20393;-48
2022/12/31 08:22:44;;;;;;;1.70;1.00;;;12.60;69.30;;;7.81;98.19;95949.31;4952815;28;20058;-48
2022/12/31 08:26:12;;;;;;;2.70;0.80;;;12.60;69.30;;;7.79;98.21;95962.81;4971179;28;20061;-48
2022/12/31 08:29:24;;;;;;;1.80;0.90;;;12.60;69.40;;;7.83;98.94;95963.97;4970141;28;20109;-54
2022/12/31 08:32:32;;;;;;;1.08;0.90;;;12.50;69.60;;;7.86;99.15;95960.00;4955422;28;20034;-51
2022/12/31 08:35:49;;;;;;;2.17;1.20;;;12.60;69.70;;;7.89;98.92;95964.84;4950918;28;20257;-49
2022/12/31 08:39:00;;;;;;;1.52;1.00;;;12.60;69.70;;;7.95;99.25;95953.28;4971265;28;20072;-50
2022/12/31 08:41:57;;;;;;;1.15;0.90;;;12.60;69.80;;;8.06;99.45;95959.56;4955103;28;20041;-48
2022/12/31 08:44:41;;;;;;;1.13;0.80;;;12.70;70.00;;;8.12;99.75;95958.63;4970602;28;20137;-54
2022/12/31 08:47:46;;;;;;;1.00;0.80;;;12.70;69.90;;;8.31;95.68;95962.66;4955352;28;20032;-49
2022/12/31 08:50:18;;;;;;;1.25;0.93;;;12.90;70.10;;;8.50;94.95;95965.91;4947803;28;20088;-53
2022/12/31 08:52:46;;;;;;;1.05;0.95;;;13.00;70.00;;;8.62;95.73;95957.88;4954871;28;20026;-49
2022/12/31 08:55:18;;;;;;;2.20;0.82;;;13.10;70.00;;;8.75;94.78;95956.72;4930018;28;20088;-54
2022/12/31 08:58:29;;;;;;;3.22;1.00;;;13.20;69.90;;;8.85;95.12;95959.50;4960293;28;20519;-51
2022/12/31 09:00:58;;;;;;;1.08;0.70;;;13.30;69.70;;;8.92;94.80;95962.78;4953654;28;20029;-50
2022/12/31 09:04:13;;;;;;;3.05;0.68;;;13.40;69.60;;;9.03;94.19;95958.44;4970147;28;20131;-48
2022/12/31 09:07:01;;;;;;;3.70;0.85;;;13.50;69.50;;;9.13;94.03;95958.56;4950837;28;20389;-50
2022/12/31 09:10:13;;;;;;;2.95;0.77;;;13.60;69.30;;;9.22;93.63;95961.63;4956147;28;20033;-49
2022/12/31 09:13:29;;;;;;;1.10;0.70;;;13.80;69.20;;;9.35;93.29;95968.41;4968083;28;20052;-49
2022/12/31 09:16:56;;;;;;;1.20;1.00;;;13.90;69.00;;;9.48;93.55;95970.69;4955201;28;20128;-50
2022/12/31 09:19:22;;;;;;;2.20;0.70;;;14.00;69.00;;;9.60;93.04;95968.72;4945538;28;20420;-48
2022/12/31 09:21:51;;;;;;;2.28;1.50;;;14.20;68.90;;;9.82;92.23;95968.69;4963121;28;20030;-49
2022/12/31 09:24:18;;;;;;;3.00;1.58;;;14.50;68.70;;;10.00;90.63;95959.56;4969683;28;20034;-52
2022/12/31 09:27:50;;;;;;;0.90;0.70;;;14.80;68.40;;;10.32;90.28;95969.47;4970242;28;20633;-48
2022/12/31 09:30:29;;;;;;;3.10;0.63;;;15.20;68.00;;;10.62;88.38;95966.25;4975582;28;20121;-53
2022/12/31 09:33:55;;;;;;;0.95;0.50;;;15.70;67.30;;;10.99;85.66;95955.56;4970800;28;20097;-50
2022/12/31 09:36:55;;;;;;;2.08;0.75;;;16.00;66.40;;;11.34;83.80;95967.47;4964496;28;20042;-52
2022/12/31 09:39:46;;;;;;;1.45;0.80;;;16.40;66.30;;;11.66;82.20;95961.22;4971618;28;20030;-53
2022/12/31 09:43:31;;;;;;;0.80;0.80;;;16.70;65.70;;;11.93;79.94;95969.88;4965906;28;20037;-51
2022/12/31 09:47:02;;;;;;;1.10;0.70;;;17.00;65.10;;;12.16;75.55;95968.59;4966797;28;20121;-52
2022/12/31 09:50:25;;;;;;;1.83;0.80;;;17.30;64.20;;;12.38;74.21;95975.53;4971059;28;20510;-56
2022/12/31 09:53:50;;;;;;;0.80;0.80;;;17.70;63.30;;;12.57;71.95;95976.66;4957392;28;20041;-48
2022/12/31 09:56:46;;;;;;;1.10;1.00;;;18.00;62.50;;;12.90;71.27;95963.78;4944678;28;20046;-55
2022/12/31 09:59:39;;;;;;;1.92;1.00;;;18.40;61.50;;;13.15;70.00;95971.75;4940378;28;20022;-53
2022/12/31 10:02:50;;;;;;;3.13;0.90;;;18.80;60.70;;;13.54;67.59;95963.13;4970939;28;20084;-49
2022/12/31 10:06:02;;;;;;;1.13;0.90;;;19.30;59.80;;;13.86;69.07;95959.22;4969997;28;20065;-48
2022/12/31 10:09:35;;;;;;;0.98;0.98;;;19.60;59.50;;;14.15;67.77;95959.31;4953513;28;20068;-48
2022/12/31 10:12:56;;;;;;;2.40;0.90;;;19.90;58.90;;;14.44;67.33;95955.91;4940569;28;20087;-48
2022/12/31 10:16:11;;;;;;;1.70;0.80;;;20.30;58.50;;;14.62;65.58;95965.97;4934707;28;20042;-52
2022/12/31 10:19:17;;;;;;;0.88;0.88;;;20.50;57.80;;;14.71;64.24;95966.19;4972350;28;20026;-48
2022/12/31 10:22:48;;;;;;;0.70;0.70;;;20.70;57.10;;;14.80;64.26;95957.25;4968012;28;20084;-50
2022/12/31 10:26:10;;;;;;;1.10;1.00;;;20.80;56.50;;;14.94;63.05;95949.34;4969247;28;20057;-49
2022/12/31 10:29:40;;;;;;;0.88;0.88;;;21.10;56.10;;;15.02;63.71;95940.69;4970639;28;20037;-56
2022/12/31 10:33:08;;;;;;;1.08;1.00;;;21.30;55.80;;;15.20;64.55;95936.47;4961646;28;20026;-51
2022/12/31 10:36:24;;;;;;;1.27;1.10;;;21.40;55.30;;;15.38;63.42;95936.81;4961392;28;20022;-53
2022/12/31 10:39:23;;;;;;;1.08;1.00;;;21.50;55.10;;;15.50;63.10;95923.78;4970142;28;20053;-57
2022/12/31 10:42:35;;;;;;;1.15;1.05;;;21.70;54.70;;;15.67;64.08;95926.84;4959968;28;20014;-52
2022/12/31 10:45:41;;;;;;;1.27;1.00;;;21.80;54.50;;;15.76;62.79;95918.91;4970204;28;20038;-48
2022/12/31 10:48:53;;;;;;;1.15;1.02;;;22.00;53.90;;;15.88;63.30;95916.59;4972762;28;20030;-49
2022/12/31 10:52:39;;;;;;;1.13;1.02;;;22.10;53.70;;;16.03;61.46;95917.47;4968051;28;20125;-49
2022/12/31 10:56:28;;;;;;;1.20;1.10;;;22.20;53.60;;;16.18;62.49;95918.06;4839380;28;20036;-53
2022/12/31 10:59:22;;;;;;;1.40;0.90;;;22.50;53.60;;;16.32;61.55;95906.56;4945698;28;20061;-51
2022/12/31 11:02:56;;;;;;;1.50;0.80;;;22.70;52.70;;;16.48;60.67;95894.47;4968442;28;20029;-52
2022/12/31 11:06:33;;;;;;;3.38;1.17;;;22.90;52.10;;;16.53;60.06;95890.91;4967653;28;20074;-49
2022/12/31 11:09:44;;;;;;;0.93;0.90;;;23.20;51.60;;;16.70;58.19;95890.34;4963252;28;20054;-49
2022/12/31 11:13:23;;;;;;;1.95;1.10;;;23.50;51.20;;;17.02;58.20;95886.84;4939626;28;20100;-52
2022/12/31 11:16:46;;;;;;;1.20;1.10;;;23.70;50.70;;;17.15;56.57;95883.38;4916683;28;20426;-54
2022/12/31 11:20:29;;;;;;;1.30;1.00;;;23.90;50.20;;;17.50;56.04;95881.84;4952152;28;20031;-54
2022/12/31 11:23:42;;;;;;;1.23;1.13;;;24.20;50.30;;;17.65;55.27;95880.75;4958386;28;20042;-57
2022/12/31 11:26:57;;;;;;;3.17;1.20;;;24.50;49.80;;;17.71;56.29;95879.53;4942499;28;20026;-57
2022/12/31 11:30:02;;;;;;;0.90;0.90;;;24.60;49.10;;;17.92;55.08;95876.41;4951748;28;20069;-54
2022/12/31 11:33:21;;;;;;;1.27;1.13;;;24.80;49.10;;;18.15;55.82;95871.84;4969932;28;20034;-51
2022/12/31 11:36:40;;;;;;;1.08;1.00;;;24.90;48.60;;;18.39;54.48;95868.84;4977431;28;20014;-57
2022/12/31 11:39:54;;;;;;;1.23;0.90;;;25.20;48.00;;;18.54;53.32;95873.06;4945958;28;20038;-59
2022/12/31 11:42:40;;;;;;;0.90;0.90;;;25.40;47.40;;;18.56;52.82;95876.25;4945182;28;20465;-56
2022/12/31 11:45:57;;;;;;;1.20;1.00;;;25.50;46.80;;;18.58;53.67;95866.72;4952000;28;20064;-58
2022/12/31 11:49:11;;;;;;;1.30;1.20;;;25.60;46.40;;;18.48;55.07;95854.28;4968036;28;20116;-57